Time;durP1;ratioP1;P1;durP2;ratioP2;P2;SDS_P1;SDS_P2;PMS_P1;PMS_P2;Temp;Humidity;BMP_temperature;BMP_pressure;BME280_temperature;BME280_humidity;BME280_pressure;Samples;Min_cycle;Max_cycle;Signal;HPM_P1;HPM_P2
2021/10/05 00:01:34;;;;;;;2.20;1.88;;;;;;;13.26;67.51;98514.63;4986809;28;20050;-44
2021/10/05 00:04:00;;;;;;;5.30;2.15;;;;;;;13.28;67.96;98502.41;4989715;28;20105;-45
2021/10/05 00:06:27;;;;;;;3.97;1.75;;;;;;;13.30;69.44;98491.94;4983986;28;20101;-45
2021/10/05 00:08:54;;;;;;;3.15;1.45;;;;;;;13.32;69.07;98497.94;4985748;28;20054;-45
2021/10/05 00:11:20;;;;;;;2.45;1.73;;;;;;;13.33;68.40;98490.06;4984251;28;20053;-43
2021/10/05 00:13:47;;;;;;;4.68;3.75;;;;;;;13.34;68.62;98494.38;4983869;28;20042;-44
2021/10/05 00:16:14;;;;;;;3.65;1.73;;;;;;;13.36;69.24;98484.75;4985262;28;20094;-45
2021/10/05 00:18:41;;;;;;;2.28;0.95;;;;;;;13.39;68.62;98477.72;4988473;28;20395;-44
2021/10/05 00:21:09;;;;;;;4.05;1.75;;;;;;;13.40;69.15;98479.44;4987553;28;20112;-46
2021/10/05 00:23:36;;;;;;;4.40;1.85;;;;;;;13.41;68.44;98470.72;4989159;28;20133;-45
2021/10/05 00:26:02;;;;;;;3.95;0.95;;;;;;;13.42;67.98;98464.59;4984961;28;20612;-43
2021/10/05 00:28:29;;;;;;;4.03;2.08;;;;;;;13.43;69.02;98458.50;4986532;28;20565;-44
2021/10/05 00:30:56;;;;;;;6.68;2.00;;;;;;;13.44;68.37;98444.59;4983644;28;20053;-43
2021/10/05 00:33:23;;;;;;;2.70;1.10;;;;;;;13.44;68.36;98452.41;4986837;28;20501;-43
2021/10/05 00:35:49;;;;;;;3.38;2.10;;;;;;;13.46;68.15;98450.56;4985706;28;20068;-45
2021/10/05 00:38:16;;;;;;;2.90;1.23;;;;;;;13.47;67.75;98434.06;4986510;28;20133;-44
2021/10/05 00:40:43;;;;;;;2.45;2.03;;;;;;;13.51;69.40;98427.84;4985696;28;20054;-47
2021/10/05 00:43:10;;;;;;;4.10;2.22;;;;;;;13.50;68.86;98413.16;4984867;28;20493;-45
2021/10/05 00:45:37;;;;;;;2.30;1.42;;;;;;;13.50;69.05;98405.34;4985160;28;20104;-44
2021/10/05 00:48:04;;;;;;;4.50;1.40;;;;;;;13.51;68.57;98401.84;4986243;28;20049;-45
2021/10/05 00:50:32;;;;;;;4.32;2.42;;;;;;;13.54;67.71;98391.31;4987542;28;20593;-44
2021/10/05 00:52:58;;;;;;;1.65;0.80;;;;;;;13.56;68.55;98365.25;4983803;28;20446;-47
2021/10/05 00:55:25;;;;;;;3.60;2.13;;;;;;;13.58;69.43;98340.03;4986447;28;20050;-45
2021/10/05 00:57:53;;;;;;;2.42;1.38;;;;;;;13.57;68.62;98320.97;4987616;28;20047;-45
2021/10/05 01:00:21;;;;;;;4.82;1.67;;;;;;;13.56;69.00;98314.06;4986975;28;20042;-46
2021/10/05 01:02:48;;;;;;;1.70;1.20;;;;;;;13.55;70.01;98290.72;4987011;28;20085;-43
2021/10/05 01:05:16;;;;;;;1.45;0.70;;;;;;;13.55;69.79;98281.19;4985188;28;20240;-44
2021/10/05 01:07:46;;;;;;;2.67;1.83;;;;;;;13.56;68.88;98272.47;4987848;28;20054;-44
2021/10/05 01:10:17;;;;;;;3.67;1.88;;;;;;;13.56;70.17;98264.66;4987455;28;20046;-44
2021/10/05 01:12:48;;;;;;;4.45;2.25;;;;;;;13.54;69.97;98245.66;4987029;28;20062;-46
2021/10/05 01:15:17;;;;;;;4.50;1.20;;;;;;;13.55;70.40;98234.38;4986678;28;20638;-44
2021/10/05 01:17:44;;;;;;;2.58;1.45;;;;;;;13.54;70.26;98222.25;5002712;28;20042;-45
2021/10/05 01:20:11;;;;;;;2.55;0.98;;;;;;;13.51;70.43;98204.19;4986170;28;20093;-46
2021/10/05 01:22:38;;;;;;;4.55;1.63;;;;;;;13.49;70.49;98199.06;4985606;28;20051;-47
2021/10/05 01:25:07;;;;;;;4.93;1.90;;;;;;;13.51;70.24;98201.56;4986896;28;20065;-44
2021/10/05 01:27:46;;;;;;;2.85;1.33;;;;;;;13.51;69.61;98198.97;4995585;28;20053;-43
2021/10/05 01:30:14;;;;;;;4.13;1.83;;;;;;;13.53;69.32;98199.75;4986621;28;20042;-46
2021/10/05 01:32:42;;;;;;;5.22;2.10;;;;;;;13.52;68.79;98187.69;4985684;28;20046;-45
2021/10/05 01:35:09;;;;;;;2.47;1.65;;;;;;;13.55;69.31;98179.75;4986059;28;20046;-44
2021/10/05 01:37:36;;;;;;;3.08;1.67;;;;;;;13.55;69.37;98174.53;4985646;28;20137;-48
2021/10/05 01:40:05;;;;;;;2.53;1.13;;;;;;;13.55;69.39;98165.88;4981988;28;20046;-44
2021/10/05 01:42:31;;;;;;;1.70;1.52;;;;;;;13.52;69.17;98197.22;4987646;28;20399;-44
2021/10/05 01:44:58;;;;;;;1.40;1.30;;;;;;;13.51;69.43;98165.16;4985312;28;20112;-44
2021/10/05 01:47:25;;;;;;;1.92;1.40;;;;;;;13.50;69.39;98241.50;4984605;28;20062;-47
2021/10/05 01:49:52;;;;;;;1.83;0.68;;;;;;;13.53;69.50;98233.56;4981093;28;20395;-45
2021/10/05 01:52:18;;;;;;;3.13;1.63;;;;;;;13.57;69.27;98224.72;4982721;28;20101;-44
2021/10/05 01:54:45;;;;;;;1.75;0.20;;;;;;;13.61;68.81;98223.66;4986100;28;20622;-44
2021/10/05 01:57:12;;;;;;;2.22;1.15;;;;;;;13.63;68.58;98226.19;4981269;28;20542;-45
2021/10/05 01:59:39;;;;;;;2.10;1.55;;;;;;;13.64;68.72;98227.06;4988125;28;20685;-45
2021/10/05 02:02:06;;;;;;;2.35;1.30;;;;;;;13.67;68.23;98232.09;4983685;28;20050;-48
2021/10/05 02:04:33;;;;;;;2.03;1.35;;;;;;;13.67;68.00;98232.09;4987866;28;20046;-48
2021/10/05 02:07:01;;;;;;;2.42;1.17;;;;;;;13.66;68.24;98230.41;4984063;28;20038;-46
2021/10/05 02:09:28;;;;;;;2.33;2.22;;;;;;;13.65;68.49;98233.94;4986053;28;20050;-45
2021/10/05 02:11:55;;;;;;;1.27;1.17;;;;;;;13.65;67.83;98231.34;4980924;28;21256;-45
2021/10/05 02:14:21;;;;;;;2.05;1.10;;;;;;;13.67;68.13;98234.69;4982078;28;20849;-45
2021/10/05 02:16:48;;;;;;;1.73;1.63;;;;;;;13.65;67.01;98240.00;4983215;28;20052;-46
2021/10/05 02:19:15;;;;;;;2.25;1.15;;;;;;;13.64;66.67;98227.88;4983034;28;20050;-45
2021/10/05 02:21:41;;;;;;;1.90;1.25;;;;;;;13.64;66.45;98232.25;4983663;28;20057;-45
2021/10/05 02:26:56;;;;;;;2.15;1.92;;;;;;;13.62;66.23;98225.34;4983832;28;20042;-49
2021/10/05 02:29:23;;;;;;;2.70;1.52;;;;;;;13.62;67.06;98233.16;4983253;28;20058;-45
2021/10/05 02:31:51;;;;;;;1.23;1.10;;;;;;;13.62;65.84;98234.94;4985922;28;20053;-44
2021/10/05 02:34:18;;;;;;;1.88;0.40;;;;;;;13.60;65.74;98226.34;4984589;28;20630;-49
2021/10/05 02:36:45;;;;;;;1.30;1.23;;;;;;;13.59;66.95;98222.91;4984916;28;20066;-45
2021/10/05 02:39:12;;;;;;;1.45;1.35;;;;;;;13.57;65.86;98236.88;4984996;28;20050;-45
2021/10/05 02:41:39;;;;;;;2.92;1.67;;;;;;;13.59;67.19;98238.50;4983801;28;20054;-47
2021/10/05 02:44:06;;;;;;;2.15;1.25;;;;;;;13.58;65.63;98234.19;4986296;28;20113;-48
2021/10/05 02:46:32;;;;;;;2.47;0.40;;;;;;;13.57;65.42;98236.88;4982950;28;20458;-48
2021/10/05 02:48:59;;;;;;;0.52;0.52;;;;;;;13.57;65.30;98227.31;4982189;28;21569;-49
2021/10/05 02:51:26;;;;;;;1.73;1.52;;;;;;;13.57;65.25;98229.91;4984496;28;20053;-45
2021/10/05 02:53:53;;;;;;;1.60;1.50;;;;;;;13.56;65.79;98241.25;4983193;28;20050;-47
2021/10/05 02:56:19;;;;;;;1.60;1.17;;;;;;;13.55;66.10;98234.38;4986064;28;20052;-49
2021/10/05 02:58:46;;;;;;;1.88;1.63;;;;;;;13.53;66.52;98225.78;4984531;28;20042;-44
2021/10/05 03:01:13;;;;;;;0.88;0.40;;;;;;;13.53;65.59;98219.72;4984652;28;20563;-47
2021/10/05 03:03:39;;;;;;;1.75;1.17;;;;;;;13.51;66.38;98206.78;4984400;28;20054;-45
2021/10/05 03:06:06;;;;;;;1.33;1.05;;;;;;;13.51;65.43;98201.56;4986829;28;20121;-46
2021/10/05 03:08:35;;;;;;;3.03;1.15;;;;;;;13.51;65.96;98190.34;4987254;28;20050;-46
2021/10/05 03:11:01;;;;;;;1.70;1.05;;;;;;;13.49;64.85;98193.00;4988821;28;20487;-45
2021/10/05 03:13:32;;;;;;;2.67;1.08;;;;;;;13.49;64.48;98193.00;4988348;28;20104;-45
2021/10/05 03:16:00;;;;;;;1.45;1.20;;;;;;;13.46;64.75;98183.56;4985252;28;20054;-45
2021/10/05 03:18:27;;;;;;;1.00;1.00;;;;;;;13.47;64.58;98179.19;4988060;28;20185;-45
2021/10/05 03:20:53;;;;;;;1.33;1.25;;;;;;;13.43;65.98;98172.44;4985464;28;20038;-45
2021/10/05 03:23:20;;;;;;;2.28;1.38;;;;;;;13.43;64.73;98175.03;4990138;28;20050;-46
2021/10/05 03:25:47;;;;;;;1.50;0.77;;;;;;;13.42;64.64;98162.97;4986154;28;20077;-45
2021/10/05 03:28:14;;;;;;;1.48;1.38;;;;;;;13.40;64.63;98168.22;4987800;28;20082;-45
2021/10/05 03:30:40;;;;;;;1.90;1.75;;;;;;;13.39;65.42;98181.28;4988484;28;20080;-46
2021/10/05 03:33:07;;;;;;;2.25;1.33;;;;;;;13.36;65.63;98177.06;4988853;28;20072;-46
2021/10/05 03:35:34;;;;;;;1.90;1.65;;;;;;;13.35;64.00;98178.00;4985946;28;20046;-46
2021/10/05 03:38:01;;;;;;;1.77;1.13;;;;;;;13.32;65.34;98180.72;4988397;28;20042;-46
2021/10/05 03:40:28;;;;;;;2.17;1.30;;;;;;;13.31;65.11;98179.03;4987208;28;20081;-46
2021/10/05 03:42:55;;;;;;;1.55;1.45;;;;;;;13.29;63.81;98173.91;4988784;28;21555;-45
2021/10/05 03:45:23;;;;;;;1.17;1.08;;;;;;;13.27;65.26;98167.91;4983769;28;20058;-47
2021/10/05 03:47:50;;;;;;;2.50;0.90;;;;;;;13.23;64.19;98161.16;4985016;28;20061;-46
2021/10/05 03:50:18;;;;;;;1.08;0.93;;;;;;;13.22;64.85;98169.88;4987609;28;20116;-44
2021/10/05 03:52:45;;;;;;;2.17;1.25;;;;;;;13.20;64.75;98167.34;4988042;28;20046;-46
2021/10/05 03:55:11;;;;;;;1.30;1.20;;;;;;;13.19;64.33;98177.81;4987483;28;20046;-47
2021/10/05 03:57:39;;;;;;;1.80;1.65;;;;;;;13.19;64.95;98177.81;4988441;28;20509;-48
2021/10/05 04:00:06;;;;;;;3.08;1.73;;;;;;;13.15;64.96;98174.53;4987050;28;20073;-45
2021/10/05 04:02:33;;;;;;;1.63;1.52;;;;;;;13.14;65.18;98177.19;4985987;28;20194;-46
2021/10/05 04:04:59;;;;;;;2.40;1.75;;;;;;;13.13;63.80;98175.50;4986829;28;20057;-45
2021/10/05 04:07:26;;;;;;;2.58;2.38;;;;;;;13.10;63.84;98179.91;4986525;28;20525;-44
2021/10/05 04:09:52;;;;;;;1.88;0.77;;;;;;;13.09;64.24;98179.97;4987390;28;20054;-46
2021/10/05 04:12:19;;;;;;;1.33;1.23;;;;;;;13.06;64.13;98180.94;4986234;28;20093;-45
2021/10/05 04:14:46;;;;;;;1.92;1.63;;;;;;;13.05;64.27;98192.25;4986928;28;20105;-46
2021/10/05 04:17:12;;;;;;;1.35;1.25;;;;;;;13.03;64.16;98181.06;4983533;28;20054;-44
2021/10/05 04:19:39;;;;;;;1.70;1.08;;;;;;;13.01;64.91;98180.31;4982645;28;20051;-48
2021/10/05 04:22:06;;;;;;;2.72;1.35;;;;;;;12.99;64.63;98189.91;4985525;28;20057;-45
2021/10/05 04:24:32;;;;;;;2.17;1.05;;;;;;;12.98;64.58;98190.84;4982419;28;20058;-46
2021/10/05 04:26:59;;;;;;;1.27;1.15;;;;;;;12.98;64.69;98193.44;4988742;28;20744;-46
2021/10/05 04:29:26;;;;;;;2.72;1.20;;;;;;;12.97;64.90;98192.56;4985764;28;20050;-45
2021/10/05 04:31:52;;;;;;;1.63;0.93;;;;;;;12.95;64.86;98188.34;4989132;28;20054;-46
2021/10/05 04:34:19;;;;;;;1.30;1.20;;;;;;;12.92;65.06;98191.09;4983058;28;20061;-45
2021/10/05 04:36:45;;;;;;;2.10;1.92;;;;;;;12.92;63.89;98193.69;4987550;28;20065;-47
2021/10/05 04:39:12;;;;;;;1.75;0.88;;;;;;;12.90;64.09;98200.72;4989605;28;20100;-44
2021/10/05 04:41:38;;;;;;;1.60;1.50;;;;;;;12.88;63.86;98203.38;4988487;28;20054;-44
2021/10/05 04:44:05;;;;;;;3.55;1.17;;;;;;;12.87;64.39;98211.22;4987273;28;20050;-44
2021/10/05 04:46:32;;;;;;;2.53;1.25;;;;;;;12.85;63.95;98213.88;4984415;28;20059;-45
2021/10/05 04:48:58;;;;;;;1.65;1.38;;;;;;;12.82;64.95;98214.88;4988676;28;20054;-47
2021/10/05 04:51:25;;;;;;;3.55;1.90;;;;;;;12.79;64.29;98214.97;4986477;28;20042;-46
2021/10/05 04:53:51;;;;;;;1.75;1.15;;;;;;;12.78;63.52;98222.84;4988796;28;20046;-44
2021/10/05 04:56:18;;;;;;;3.22;1.23;;;;;;;12.74;64.63;98216.94;4986681;28;20101;-44
2021/10/05 04:58:44;;;;;;;1.25;1.15;;;;;;;12.72;64.00;98219.59;4986722;28;20046;-47
2021/10/05 05:01:11;;;;;;;2.47;0.70;;;;;;;12.73;64.31;98215.22;4986480;28;20062;-46
2021/10/05 05:03:38;;;;;;;2.40;1.58;;;;;;;12.71;64.67;98217.06;4988708;28;20054;-48
2021/10/05 05:06:04;;;;;;;2.75;0.88;;;;;;;12.70;63.70;98211.00;4986975;28;20046;-46
2021/10/05 05:08:31;;;;;;;1.75;1.52;;;;;;;12.69;63.48;98221.47;4985390;28;20043;-47
2021/10/05 05:10:58;;;;;;;1.50;1.05;;;;;;;12.69;63.92;98216.25;4987381;28;20046;-45
2021/10/05 05:13:26;;;;;;;1.38;0.93;;;;;;;12.68;63.77;98217.19;4983501;28;20115;-46
2021/10/05 05:15:53;;;;;;;2.38;1.48;;;;;;;12.65;64.04;98225.09;4984308;28;20042;-45
2021/10/05 05:18:19;;;;;;;4.38;1.65;;;;;;;12.63;63.60;98224.31;4988077;28;20482;-44
2021/10/05 05:20:46;;;;;;;1.60;1.50;;;;;;;12.61;63.88;98221.78;4985777;28;20050;-45
2021/10/05 05:23:13;;;;;;;3.67;1.52;;;;;;;12.59;63.79;98224.44;4988105;28;20054;-44
2021/10/05 05:25:43;;;;;;;1.40;0.75;;;;;;;12.58;64.45;98221.91;4984333;28;20380;-45
2021/10/05 05:28:09;;;;;;;2.10;0.35;;;;;;;12.56;64.97;98213.31;4987145;28;20630;-45
2021/10/05 05:30:36;;;;;;;1.23;1.13;;;;;;;12.56;63.47;98224.56;4984485;28;20047;-45
2021/10/05 05:33:03;;;;;;;3.70;1.58;;;;;;;12.54;64.72;98217.75;4986435;28;20081;-44
2021/10/05 05:35:29;;;;;;;1.58;1.48;;;;;;;12.54;63.92;98212.56;4981994;28;20112;-44
2021/10/05 05:37:56;;;;;;;1.77;1.33;;;;;;;12.53;63.89;98208.28;4986080;28;20046;-43
2021/10/05 05:40:22;;;;;;;3.83;0.90;;;;;;;12.52;63.50;98215.22;4985296;28;20050;-46
2021/10/05 05:42:49;;;;;;;2.33;1.15;;;;;;;12.48;63.44;98218.84;4985093;28;20498;-47
2021/10/05 05:45:16;;;;;;;1.55;1.42;;;;;;;12.47;64.40;98219.75;4984339;28;20213;-45
2021/10/05 05:47:42;;;;;;;2.35;1.50;;;;;;;12.46;64.46;98220.63;4985857;28;20061;-45
2021/10/05 05:50:09;;;;;;;1.13;1.05;;;;;;;12.42;64.43;98217.31;4983668;28;20482;-46
2021/10/05 05:52:36;;;;;;;2.58;1.15;;;;;;;12.42;63.33;98225.13;4986917;28;20058;-44
2021/10/05 05:55:04;;;;;;;1.45;1.35;;;;;;;12.39;63.54;98212.25;4986840;28;20523;-46
2021/10/05 05:57:30;;;;;;;1.08;0.98;;;;;;;12.38;63.05;98204.53;4981786;28;20100;-44
2021/10/05 05:59:58;;;;;;;1.30;1.27;;;;;;;12.33;63.53;98213.34;4985218;28;20043;-45
2021/10/05 06:02:25;;;;;;;2.58;1.48;;;;;;;12.32;64.46;98210.81;4985049;28;20046;-46
2021/10/05 06:04:52;;;;;;;3.53;1.63;;;;;;;12.29;64.52;98198.78;4984904;28;20055;-45
2021/10/05 06:07:19;;;;;;;1.98;1.27;;;;;;;12.28;63.85;98198.84;4986310;28;20047;-45
2021/10/05 06:09:45;;;;;;;2.13;0.80;;;;;;;12.24;64.37;98198.13;4981493;28;20049;-45
2021/10/05 06:12:17;;;;;;;1.35;1.10;;;;;;;12.21;63.53;98201.69;4986946;28;20424;-45
2021/10/05 06:14:43;;;;;;;1.25;1.15;;;;;;;12.20;63.50;98201.75;4981150;28;20057;-44
2021/10/05 06:17:11;;;;;;;1.20;1.10;;;;;;;12.18;64.24;98206.16;4983586;28;20050;-45
2021/10/05 06:19:38;;;;;;;2.40;1.15;;;;;;;12.17;64.57;98207.06;4983248;28;20047;-44
2021/10/05 06:22:05;;;;;;;1.25;1.15;;;;;;;12.13;63.27;98206.31;5000577;28;20042;-44
2021/10/05 06:24:31;;;;;;;2.65;1.13;;;;;;;12.10;64.06;98201.28;4985135;28;20648;-44
2021/10/05 06:26:58;;;;;;;1.60;1.02;;;;;;;12.09;63.60;98204.75;4984714;28;20051;-44
2021/10/05 06:29:24;;;;;;;1.30;1.00;;;;;;;12.07;63.35;98212.63;4984451;28;20165;-44
2021/10/05 06:31:51;;;;;;;2.13;0.90;;;;;;;12.05;63.53;98209.19;4983373;28;20105;-45
2021/10/05 06:34:18;;;;;;;2.22;1.10;;;;;;;12.04;64.44;98210.09;4983954;28;20046;-47
2021/10/05 06:36:44;;;;;;;1.52;1.35;;;;;;;12.02;64.69;98214.50;4987069;28;20051;-44
2021/10/05 06:39:11;;;;;;;2.65;1.60;;;;;;;11.99;64.60;98214.59;4982839;28;20047;-48
2021/10/05 06:41:38;;;;;;;2.28;1.48;;;;;;;11.97;63.39;98211.25;4984011;28;20545;-45
2021/10/05 06:44:04;;;;;;;1.40;1.15;;;;;;;11.96;63.64;98206.97;4985234;28;20053;-46
2021/10/05 06:46:31;;;;;;;4.03;1.55;;;;;;;11.93;63.84;98210.50;4982222;28;20058;-44
2021/10/05 06:48:57;;;;;;;1.00;0.80;;;;;;;11.92;64.29;98208.00;4982282;28;20078;-44
2021/10/05 06:51:24;;;;;;;2.30;1.15;;;;;;;11.90;63.89;98214.97;4983051;28;20050;-48
2021/10/05 06:53:51;;;;;;;2.72;1.95;;;;;;;11.89;63.53;98208.09;4984558;28;20046;-46
2021/10/05 06:56:17;;;;;;;1.52;0.75;;;;;;;11.87;63.84;98215.09;4981934;28;20387;-44
2021/10/05 06:58:44;;;;;;;1.75;0.98;;;;;;;11.86;63.41;98210.81;4984022;28;20406;-44
2021/10/05 07:01:11;;;;;;;1.50;1.02;;;;;;;11.85;63.88;98209.13;4983281;28;20050;-44
2021/10/05 07:03:38;;;;;;;1.55;1.02;;;;;;;11.81;63.26;98214.41;4985524;28;20046;-45
2021/10/05 07:06:04;;;;;;;2.53;1.48;;;;;;;11.80;64.61;98210.13;4985105;28;20454;-45
2021/10/05 07:08:31;;;;;;;2.35;1.75;;;;;;;11.79;63.57;98213.63;4985019;28;20054;-46
2021/10/05 07:10:59;;;;;;;1.88;1.77;;;;;;;11.80;64.33;98217.91;4983220;28;20046;-47
2021/10/05 07:13:25;;;;;;;5.72;1.70;;;;;;;11.78;63.60;98211.06;4985167;28;20121;-46
2021/10/05 07:15:52;;;;;;;2.78;1.77;;;;;;;11.78;64.39;98217.13;4983830;28;20073;-46
2021/10/05 07:18:19;;;;;;;1.23;1.13;;;;;;;11.76;63.46;98213.72;4984631;28;20061;-45
2021/10/05 07:20:45;;;;;;;2.38;2.20;;;;;;;11.75;64.50;98217.22;4980997;28;20125;-44
2021/10/05 07:23:12;;;;;;;2.47;1.55;;;;;;;11.75;64.40;98217.22;4980281;28;20058;-44
2021/10/05 07:25:39;;;;;;;1.35;1.13;;;;;;;11.74;64.39;98222.47;4981932;28;20722;-47
2021/10/05 07:28:08;;;;;;;1.67;1.52;;;;;;;11.72;64.36;98226.88;4984675;28;20097;-48
2021/10/05 07:30:35;;;;;;;2.30;2.20;;;;;;;11.70;64.61;98220.00;4983993;28;20414;-46
2021/10/05 07:33:02;;;;;;;1.73;1.20;;;;;;;11.72;63.97;98222.53;4984027;28;20053;-44
2021/10/05 07:35:30;;;;;;;2.95;1.25;;;;;;;11.70;64.96;98213.97;4980403;28;20050;-47
2021/10/05 07:37:57;;;;;;;2.65;1.80;;;;;;;11.72;64.21;98219.09;4983578;28;20042;-46
2021/10/05 07:40:24;;;;;;;1.63;1.20;;;;;;;11.72;64.19;98222.53;4979231;28;20054;-46
2021/10/05 07:42:53;;;;;;;1.10;1.00;;;;;;;11.70;64.23;98230.38;4978612;28;20054;-44
2021/10/05 07:45:21;;;;;;;1.20;1.08;;;;;;;11.73;64.60;98224.25;4979468;28;20056;-46
2021/10/05 07:47:48;;;;;;;2.60;1.73;;;;;;;11.76;64.50;98218.09;4979599;28;20062;-46
2021/10/05 07:50:15;;;;;;;2.25;1.17;;;;;;;11.80;65.33;98230.03;4981219;28;20060;-45
2021/10/05 07:52:41;;;;;;;3.90;2.15;;;;;;;11.82;65.17;98228.22;4982192;28;20062;-47
2021/10/05 07:55:09;;;;;;;1.73;1.38;;;;;;;11.86;65.03;98234.16;4987129;28;20058;-46
2021/10/05 07:57:36;;;;;;;2.63;1.52;;;;;;;11.89;65.33;98239.22;4987331;28;20046;-45
2021/10/05 08:00:05;;;;;;;2.55;1.20;;;;;;;11.92;65.71;98239.13;4987316;28;20061;-45
2021/10/05 08:02:32;;;;;;;1.08;1.00;;;;;;;11.96;65.76;98241.53;4979405;28;20068;-49
2021/10/05 08:04:58;;;;;;;1.70;1.17;;;;;;;12.01;65.67;98243.09;4997153;28;20054;-46
2021/10/05 08:07:26;;;;;;;3.22;1.70;;;;;;;12.04;65.43;98242.97;4983855;28;20095;-46
2021/10/05 08:09:54;;;;;;;1.38;1.27;;;;;;;12.10;65.97;98236.75;4985258;28;20050;-45
2021/10/05 08:12:22;;;;;;;2.10;2.00;;;;;;;12.16;65.57;98246.91;4983498;28;20050;-46
2021/10/05 08:14:49;;;;;;;2.05;1.50;;;;;;;12.21;66.48;98247.56;4986013;28;20124;-46
2021/10/05 08:17:16;;;;;;;1.25;1.15;;;;;;;12.26;65.75;98248.22;4988833;28;20047;-47
2021/10/05 08:19:42;;;;;;;1.02;0.40;;;;;;;12.32;67.07;98241.94;4986008;28;20586;-47
2021/10/05 08:22:10;;;;;;;2.13;1.92;;;;;;;12.36;66.20;98248.72;4984326;28;20038;-45
2021/10/05 08:24:37;;;;;;;1.85;1.10;;;;;;;12.42;65.41;98252.81;4988500;28;20055;-45
2021/10/05 08:27:05;;;;;;;1.73;1.63;;;;;;;12.50;66.70;98258.56;4986394;28;20050;-45
2021/10/05 08:29:33;;;;;;;1.80;1.70;;;;;;;12.55;65.96;98264.44;4983102;28;20050;-46
2021/10/05 08:32:00;;;;;;;1.25;1.15;;;;;;;12.62;66.03;98258.97;4984818;28;20061;-45
2021/10/05 08:34:26;;;;;;;1.67;1.58;;;;;;;12.70;65.29;98256.94;4988565;28;20050;-46
2021/10/05 08:36:53;;;;;;;2.78;1.25;;;;;;;12.74;65.92;98263.69;4990143;28;20043;-45
2021/10/05 08:39:19;;;;;;;1.27;1.17;;;;;;;12.79;65.31;98272.13;4983194;28;20549;-47
2021/10/05 08:41:47;;;;;;;2.33;1.45;;;;;;;12.82;64.75;98277.22;4985970;28;20771;-45
2021/10/05 08:44:15;;;;;;;1.92;1.83;;;;;;;12.88;65.17;98275.25;4983440;28;20790;-47
2021/10/05 08:46:42;;;;;;;1.42;1.25;;;;;;;12.91;65.51;98281.19;4982467;28;20054;-46
2021/10/05 08:49:09;;;;;;;1.67;1.58;;;;;;;12.94;64.61;98280.22;4982784;28;20046;-48
2021/10/05 08:51:37;;;;;;;2.15;1.33;;;;;;;12.95;65.27;98287.09;4983990;28;20049;-46
2021/10/05 08:54:04;;;;;;;1.52;1.30;;;;;;;12.98;65.21;98286.97;4983921;28;20046;-49
2021/10/05 08:56:31;;;;;;;3.42;0.52;;;;;;;13.01;65.24;98286.88;4982272;28;21231;-49
2021/10/05 08:58:57;;;;;;;1.92;1.33;;;;;;;13.03;65.41;98279.84;4983785;28;20058;-46
2021/10/05 09:01:31;;;;;;;2.22;1.30;;;;;;;13.03;64.45;98284.22;4984808;28;20050;-47
2021/10/05 09:03:59;;;;;;;1.80;1.40;;;;;;;13.05;65.39;98288.44;4983183;28;20039;-46
2021/10/05 09:06:26;;;;;;;3.47;1.42;;;;;;;13.08;65.22;98288.28;4982607;28;20065;-47
2021/10/05 09:08:53;;;;;;;1.25;1.15;;;;;;;13.08;64.81;98297.84;4983677;28;20112;-48
2021/10/05 09:11:24;;;;;;;3.92;1.10;;;;;;;13.10;64.84;98296.88;4983468;28;20053;-47
2021/10/05 09:13:54;;;;;;;1.85;1.65;;;;;;;13.11;65.01;98301.16;4984174;28;20151;-46
2021/10/05 09:16:24;;;;;;;2.78;1.70;;;;;;;13.11;63.54;98292.53;4983822;28;20050;-45
2021/10/05 09:19:01;;;;;;;1.70;0.95;;;;;;;13.11;64.36;98295.94;4980209;28;20050;-48
2021/10/05 09:21:32;;;;;;;2.10;1.27;;;;;;;13.11;64.51;98293.34;4981683;28;20050;-47
2021/10/05 09:24:03;;;;;;;1.33;1.23;;;;;;;13.12;63.59;98296.81;4982404;28;20051;-46
2021/10/05 09:26:32;;;;;;;1.48;0.70;;;;;;;13.17;63.68;98305.25;4979960;28;20666;-46
2021/10/05 09:29:07;;;;;;;;;;;;;;;13.19;63.56;98310.38;4983165;28;20100;-47
2021/10/05 09:31:59;;;;;;;1.67;1.58;;;;;;;13.19;64.27;98313.00;4979374;28;19961;-45
2021/10/05 09:34:39;;;;;;;1.60;1.50;;;;;;;13.21;64.45;98311.19;4981899;28;20046;-48
2021/10/05 09:37:08;;;;;;;1.67;0.80;;;;;;;13.23;64.79;98311.94;4997203;28;20062;-46
2021/10/05 09:39:40;;;;;;;1.63;1.30;;;;;;;13.26;64.65;98319.63;4984168;28;20054;-46
2021/10/05 09:42:07;;;;;;;2.72;1.40;;;;;;;13.29;64.68;98324.69;4983656;28;20065;-47
2021/10/05 09:44:34;;;;;;;1.42;1.13;;;;;;;13.31;64.41;98330.66;4984572;28;20059;-46
2021/10/05 09:47:01;;;;;;;5.43;1.63;;;;;;;13.31;64.10;98335.03;4983917;28;20061;-47
2021/10/05 09:49:28;;;;;;;2.10;1.90;;;;;;;13.33;64.32;98336.66;4982564;28;20054;-46
2021/10/05 09:52:00;;;;;;;1.88;1.77;;;;;;;13.31;64.35;98341.06;4982984;28;20129;-46
2021/10/05 09:54:27;;;;;;;1.23;1.13;;;;;;;13.35;64.32;98341.81;4981179;28;20085;-47
2021/10/05 09:56:54;;;;;;;1.55;1.45;;;;;;;13.35;63.20;98336.59;4982335;28;20467;-45
2021/10/05 09:59:21;;;;;;;1.35;0.95;;;;;;;13.37;63.98;98342.56;4980364;28;20060;-47
2021/10/05 10:01:48;;;;;;;1.33;1.23;;;;;;;13.38;63.56;98346.88;4979297;28;20499;-45
2021/10/05 10:04:16;;;;;;;1.98;1.63;;;;;;;13.42;64.28;98347.59;4980753;28;20054;-48
2021/10/05 10:06:43;;;;;;;1.33;1.23;;;;;;;13.46;64.70;98351.75;4981007;28;20054;-46
2021/10/05 10:09:10;;;;;;;3.75;3.45;;;;;;;13.55;64.33;98360.97;4982669;28;20711;-47
2021/10/05 10:11:37;;;;;;;1.33;1.15;;;;;;;13.69;65.05;98365.56;4981420;28;20070;-48
2021/10/05 10:14:04;;;;;;;1.45;1.35;;;;;;;13.82;64.59;98352.88;4981007;28;20177;-45
2021/10/05 10:16:34;;;;;;;0.98;0.52;;;;;;;13.95;65.45;98361.84;4979212;28;20441;-46
2021/10/05 10:19:03;;;;;;;1.63;1.52;;;;;;;14.04;64.50;98365.78;4979347;28;20050;-47
2021/10/05 10:21:37;;;;;;;1.13;0.98;;;;;;;14.07;64.60;98370.00;4979877;28;20050;-47
2021/10/05 10:24:12;;;;;;;3.33;1.95;;;;;;;14.10;64.55;98372.50;4994237;28;20057;-47
2021/10/05 10:26:41;;;;;;;1.63;1.52;;;;;;;14.12;64.70;98363.69;4994773;28;20081;-44
2021/10/05 10:29:30;;;;;;;1.60;1.50;;;;;;;14.14;63.47;98377.50;4983589;28;20122;-46
2021/10/05 10:31:56;;;;;;;1.67;1.50;;;;;;;14.13;64.26;98370.63;4983640;28;20049;-46
2021/10/05 10:34:23;;;;;;;0.85;0.70;;;;;;;14.16;63.82;98379.19;4985079;28;20418;-45
2021/10/05 10:36:51;;;;;;;2.05;1.85;;;;;;;14.15;64.08;98380.94;4984204;28;20058;-46
2021/10/05 10:39:21;;;;;;;;;;;;;;;14.18;64.16;98387.78;4984436;28;20047;-45
2021/10/05 10:42:00;;;;;;;1.27;1.17;;;;;;;14.16;64.17;98379.19;4980226;28;19936;-44
2021/10/05 10:44:32;;;;;;;1.40;1.30;;;;;;;14.18;63.88;98382.56;4981071;28;20733;-44
2021/10/05 10:47:21;;;;;;;1.88;1.55;;;;;;;14.19;63.71;98389.47;4982790;28;20047;-45
2021/10/05 10:49:58;;;;;;;1.65;1.55;;;;;;;14.20;64.15;98396.34;4982643;28;20729;-44
2021/10/05 10:52:34;;;;;;;1.85;1.63;;;;;;;14.21;63.88;98392.84;4983123;28;20079;-45
2021/10/05 10:55:02;;;;;;;2.17;1.67;;;;;;;14.22;63.59;98404.97;4998092;28;20061;-49
2021/10/05 10:57:33;;;;;;;2.75;1.77;;;;;;;14.21;63.95;98398.03;4979265;28;20082;-45
2021/10/05 11:00:21;;;;;;;1.33;1.23;;;;;;;14.18;63.04;98393.81;4981488;28;20038;-44
2021/10/05 11:02:53;;;;;;;3.35;3.15;;;;;;;14.18;63.10;98400.81;4977688;28;20078;-47
2021/10/05 11:05:22;;;;;;;1.05;0.60;;;;;;;14.20;63.55;98401.56;4979223;28;20334;-46
2021/10/05 11:07:52;;;;;;;2.67;1.75;;;;;;;14.19;63.12;98410.28;4992881;28;20534;-44
2021/10/05 11:10:33;;;;;;;2.85;1.90;;;;;;;14.15;63.76;98414.78;4993728;28;20134;-45
2021/10/05 11:13:03;;;;;;;1.65;1.35;;;;;;;14.13;63.00;98412.25;4981040;28;20050;-48
2021/10/05 11:15:48;;;;;;;2.22;2.03;;;;;;;14.12;63.30;98409.72;4979680;28;20390;-47
2021/10/05 11:18:17;;;;;;;1.65;1.42;;;;;;;14.12;63.60;98410.56;4980543;28;20145;-47
2021/10/05 11:20:56;;;;;;;2.28;1.60;;;;;;;14.12;64.05;98415.75;4980554;28;20054;-47
2021/10/05 11:23:25;;;;;;;2.50;1.55;;;;;;;14.16;63.31;98415.63;4994893;28;20038;-45
2021/10/05 11:25:54;;;;;;;1.67;1.27;;;;;;;14.17;62.91;98417.31;4986580;28;20137;-46
2021/10/05 11:28:24;;;;;;;1.77;1.55;;;;;;;14.18;63.79;98412.03;4987726;28;20050;-46
2021/10/05 11:30:59;;;;;;;;;;;;;;;14.23;63.54;98414.44;4984623;28;20046;-48
2021/10/05 11:33:30;;;;;;;2.17;1.95;;;;;;;14.22;63.89;98426.63;4982430;28;19921;-46
2021/10/05 11:36:01;;;;;;;1.27;1.17;;;;;;;14.24;63.21;98431.75;4985784;28;20051;-45
2021/10/05 11:38:38;;;;;;;1.75;1.65;;;;;;;14.24;63.07;98444.78;4983017;28;20081;-50
2021/10/05 11:41:05;;;;;;;4.53;1.70;;;;;;;14.25;63.30;98456.88;4983368;28;20454;-48